sensor_id;sensor_type;location;lat;lon;timestamp;pressure;altitude;pressure_sealevel;temperature;humidity
34979;BME280;21185;50.978;13.720;2022-10-31T00:02:27;98661.13;;;15.40;69.39
34979;BME280;21185;50.978;13.720;2022-10-31T00:07:29;98657.44;;;15.34;69.62
34979;BME280;21185;50.978;13.720;2022-10-31T00:12:30;98666.19;;;15.27;69.59
34979;BME280;21185;50.978;13.720;2022-10-31T00:17:34;98661.88;;;15.19;69.48
34979;BME280;21185;50.978;13.720;2022-10-31T00:22:37;98665.41;;;15.11;69.66
34979;BME280;21185;50.978;13.720;2022-10-31T00:27:39;98678.38;;;15.05;69.49
34979;BME280;21185;50.978;13.720;2022-10-31T00:32:41;98678.91;;;15.00;69.71
34979;BME280;21185;50.978;13.720;2022-10-31T00:37:43;98671.97;;;14.93;69.89
34979;BME280;21185;50.978;13.720;2022-10-31T00:42:45;98682.16;;;14.87;69.78
34979;BME280;21185;50.978;13.720;2022-10-31T00:47:47;98672.25;;;14.83;69.96
34979;BME280;21185;50.978;13.720;2022-10-31T00:52:49;98683.06;;;14.80;69.71
34979;BME280;21185;50.978;13.720;2022-10-31T00:57:51;98676.75;;;14.74;69.88
34979;BME280;21185;50.978;13.720;2022-10-31T01:02:53;98680.69;;;14.70;69.85
34979;BME280;21185;50.978;13.720;2022-10-31T01:07:55;98682.06;;;14.66;69.67
34979;BME280;21185;50.978;13.720;2022-10-31T01:12:57;98690.25;;;14.63;69.81
34979;BME280;21185;50.978;13.720;2022-10-31T01:17:59;98682.59;;;14.62;70.01
34979;BME280;21185;50.978;13.720;2022-10-31T01:23:04;98681.94;;;14.60;69.78
34979;BME280;21185;50.978;13.720;2022-10-31T01:28:06;98683.94;;;14.57;69.85
34979;BME280;21185;50.978;13.720;2022-10-31T01:33:08;98678.88;;;14.56;69.89
34979;BME280;21185;50.978;13.720;2022-10-31T01:38:09;98675.19;;;14.50;69.93
34979;BME280;21185;50.978;13.720;2022-10-31T01:43:13;98688.41;;;14.49;69.95
34979;BME280;21185;50.978;13.720;2022-10-31T01:48:17;98690.56;;;14.45;70.26
34979;BME280;21185;50.978;13.720;2022-10-31T01:53:21;98683.09;;;14.42;69.87
34979;BME280;21185;50.978;13.720;2022-10-31T01:58:29;98690.44;;;14.39;69.79
34979;BME280;21185;50.978;13.720;2022-10-31T02:03:32;98689.97;;;14.35;70.01
34979;BME280;21185;50.978;13.720;2022-10-31T02:08:37;98692.75;;;14.34;69.99
34979;BME280;21185;50.978;13.720;2022-10-31T02:13:40;98694.91;;;14.30;70.11
34979;BME280;21185;50.978;13.720;2022-10-31T02:18:43;98688.22;;;14.27;70.03
34979;BME280;21185;50.978;13.720;2022-10-31T02:29:49;98694.16;;;14.21;69.92
34979;BME280;21185;50.978;13.720;2022-10-31T02:34:58;98699.72;;;14.18;69.81
34979;BME280;21185;50.978;13.720;2022-10-31T02:46:13;98704.47;;;14.15;69.98
34979;BME280;21185;50.978;13.720;2022-10-31T02:51:17;98694.38;;;14.12;69.96
34979;BME280;21185;50.978;13.720;2022-10-31T02:56:21;98704.19;;;14.10;70.04
34979;BME280;21185;50.978;13.720;2022-10-31T03:17:07;98716.13;;;14.04;70.19
34979;BME280;21185;50.978;13.720;2022-10-31T03:22:22;98724.13;;;14.03;70.32
34979;BME280;21185;50.978;13.720;2022-10-31T03:27:26;98721.69;;;14.01;70.17
34979;BME280;21185;50.978;13.720;2022-10-31T03:37:39;98728.06;;;13.99;70.34
34979;BME280;21185;50.978;13.720;2022-10-31T03:42:53;98735.25;;;13.97;70.24
34979;BME280;21185;50.978;13.720;2022-10-31T03:47:57;98733.81;;;13.94;70.41
34979;BME280;21185;50.978;13.720;2022-10-31T03:53:10;98735.78;;;13.92;70.33
34979;BME280;21185;50.978;13.720;2022-10-31T03:58:25;98728.28;;;13.89;70.48
34979;BME280;21185;50.978;13.720;2022-10-31T04:03:31;98736.47;;;13.86;70.44
34979;BME280;21185;50.978;13.720;2022-10-31T04:08:41;98735.00;;;13.83;70.56
34979;BME280;21185;50.978;13.720;2022-10-31T04:13:50;98743.00;;;13.82;70.43
34979;BME280;21185;50.978;13.720;2022-10-31T04:18:56;98741.56;;;13.79;70.61
34979;BME280;21185;50.978;13.720;2022-10-31T04:23:58;98744.31;;;13.78;70.67
34979;BME280;21185;50.978;13.720;2022-10-31T04:29:03;98748.91;;;13.76;70.62
34979;BME280;21185;50.978;13.720;2022-10-31T04:34:06;98743.84;;;13.74;70.74
34979;BME280;21185;50.978;13.720;2022-10-31T04:39:09;98745.66;;;13.74;70.80
34979;BME280;21185;50.978;13.720;2022-10-31T04:44:24;98745.66;;;13.74;70.82
34979;BME280;21185;50.978;13.720;2022-10-31T04:49:28;98743.53;;;13.77;70.83
34979;BME280;21185;50.978;13.720;2022-10-31T04:54:30;98753.13;;;13.77;71.06
34979;BME280;21185;50.978;13.720;2022-10-31T05:00:02;98748.91;;;13.76;70.90
34979;BME280;21185;50.978;13.720;2022-10-31T05:05:04;98744.84;;;13.73;70.76
34979;BME280;21185;50.978;13.720;2022-10-31T05:10:11;98750.41;;;13.70;70.83
34979;BME280;21185;50.978;13.720;2022-10-31T05:15:14;98754.97;;;13.68;70.71
34979;BME280;21185;50.978;13.720;2022-10-31T05:20:18;98753.34;;;13.67;70.83
34979;BME280;21185;50.978;13.720;2022-10-31T05:25:49;98747.31;;;13.67;70.94
34979;BME280;21185;50.978;13.720;2022-10-31T05:30:51;98752.53;;;13.67;70.91
34979;BME280;21185;50.978;13.720;2022-10-31T05:35:55;98746.97;;;13.70;70.92
34979;BME280;21185;50.978;13.720;2022-10-31T05:40:57;98754.81;;;13.70;70.94
34979;BME280;21185;50.978;13.720;2022-10-31T05:46:05;98759.22;;;13.69;70.95
34979;BME280;21185;50.978;13.720;2022-10-31T05:51:25;98757.41;;;13.70;71.00
34979;BME280;21185;50.978;13.720;2022-10-31T05:56:27;98756.59;;;13.69;71.03
34979;BME280;21185;50.978;13.720;2022-10-31T06:01:29;98758.38;;;13.69;71.15
34979;BME280;21185;50.978;13.720;2022-10-31T06:06:39;98761.16;;;13.67;71.02
34979;BME280;21185;50.978;13.720;2022-10-31T06:11:41;98769.97;;;13.66;71.04
34979;BME280;21185;50.978;13.720;2022-10-31T06:16:43;98769.81;;;13.68;71.04
34979;BME280;21185;50.978;13.720;2022-10-31T06:22:11;98770.41;;;13.78;71.05
34979;BME280;21185;50.978;13.720;2022-10-31T06:27:14;98775.28;;;13.81;71.13
34979;BME280;21185;50.978;13.720;2022-10-31T06:32:16;98779.53;;;13.82;71.25
34979;BME280;21185;50.978;13.720;2022-10-31T06:37:19;98794.84;;;13.85;71.28
34979;BME280;21185;50.978;13.720;2022-10-31T06:42:24;98791.88;;;13.88;71.46
34979;BME280;21185;50.978;13.720;2022-10-31T06:47:26;98797.41;;;13.93;71.37
34979;BME280;21185;50.978;13.720;2022-10-31T06:52:55;98805.38;;;14.00;71.52
34979;BME280;21185;50.978;13.720;2022-10-31T06:57:59;98804.16;;;14.10;71.54
34979;BME280;21185;50.978;13.720;2022-10-31T07:03:08;98806.56;;;14.20;71.59
34979;BME280;21185;50.978;13.720;2022-10-31T07:08:12;98814.97;;;14.30;71.49
34979;BME280;21185;50.978;13.720;2022-10-31T07:13:15;98824.22;;;14.41;71.57
34979;BME280;21185;50.978;13.720;2022-10-31T07:18:24;98826.09;;;14.55;71.90
34979;BME280;21185;50.978;13.720;2022-10-31T07:23:26;98819.16;;;14.70;71.73
34979;BME280;21185;50.978;13.720;2022-10-31T07:28:48;98823.59;;;14.84;71.33
34979;BME280;21185;50.978;13.720;2022-10-31T07:33:54;98828.88;;;14.99;71.24
34979;BME280;21185;50.978;13.720;2022-10-31T07:39:02;98824.84;;;15.11;71.35
34979;BME280;21185;50.978;13.720;2022-10-31T07:44:07;98824.22;;;15.24;71.07
34979;BME280;21185;50.978;13.720;2022-10-31T07:49:28;98830.66;;;15.36;71.15
34979;BME280;21185;50.978;13.720;2022-10-31T07:54:52;98830.19;;;15.47;70.94
34979;BME280;21185;50.978;13.720;2022-10-31T07:59:57;98830.38;;;15.61;70.97
34979;BME280;21185;50.978;13.720;2022-10-31T08:04:59;98829.13;;;15.71;71.09
34979;BME280;21185;50.978;13.720;2022-10-31T08:10:04;98822.44;;;15.83;70.88
34979;BME280;21185;50.978;13.720;2022-10-31T08:15:08;98829.00;;;15.94;70.98
34979;BME280;21185;50.978;13.720;2022-10-31T08:20:11;98828.53;;;16.05;70.66
34979;BME280;21185;50.978;13.720;2022-10-31T08:25:19;98823.81;;;16.15;70.82
34979;BME280;21185;50.978;13.720;2022-10-31T08:30:26;98825.34;;;16.25;70.54
34979;BME280;21185;50.978;13.720;2022-10-31T08:36:07;98823.84;;;16.37;70.36
34979;BME280;21185;50.978;13.720;2022-10-31T08:41:26;98817.13;;;16.49;70.18
34979;BME280;21185;50.978;13.720;2022-10-31T08:46:28;98819.44;;;16.59;70.48
34979;BME280;21185;50.978;13.720;2022-10-31T08:51:31;98825.41;;;16.67;70.42
34979;BME280;21185;50.978;13.720;2022-10-31T08:56:33;98822.66;;;16.75;70.58
34979;BME280;21185;50.978;13.720;2022-10-31T09:01:38;98822.53;;;16.83;70.05
34979;BME280;21185;50.978;13.720;2022-10-31T09:06:40;98826.00;;;16.91;70.10
34979;BME280;21185;50.978;13.720;2022-10-31T09:11:56;98821.63;;;16.98;70.15
34979;BME280;21185;50.978;13.720;2022-10-31T09:17:22;98831.78;;;17.07;70.24
34979;BME280;21185;50.978;13.720;2022-10-31T09:23:05;98829.03;;;17.15;70.06
34979;BME280;21185;50.978;13.720;2022-10-31T09:28:13;98839.38;;;17.24;69.90
34979;BME280;21185;50.978;13.720;2022-10-31T09:33:16;98839.22;;;17.32;69.79
34979;BME280;21185;50.978;13.720;2022-10-31T09:38:28;98829.97;;;17.36;69.84
34979;BME280;21185;50.978;13.720;2022-10-31T09:48:54;98834.50;;;17.48;69.73
34979;BME280;21185;50.978;13.720;2022-10-31T09:54:28;98825.03;;;17.54;69.79
34979;BME280;21185;50.978;13.720;2022-10-31T09:59:37;98823.47;;;17.60;69.60
34979;BME280;21185;50.978;13.720;2022-10-31T10:04:54;98824.50;;;17.65;69.93
34979;BME280;21185;50.978;13.720;2022-10-31T10:10:00;98824.97;;;17.69;69.83
34979;BME280;21185;50.978;13.720;2022-10-31T10:26:38;98815.72;;;17.79;69.72
34979;BME280;21185;50.978;13.720;2022-10-31T10:31:42;98811.28;;;17.80;70.02
34979;BME280;21185;50.978;13.720;2022-10-31T10:36:52;98813.53;;;17.83;70.23
34979;BME280;21185;50.978;13.720;2022-10-31T10:41:57;98804.84;;;17.83;70.10
34979;BME280;21185;50.978;13.720;2022-10-31T10:47:19;98799.38;;;17.84;70.30
34979;BME280;21185;50.978;13.720;2022-10-31T10:58:23;98795.75;;;17.85;70.42
34979;BME280;21185;50.978;13.720;2022-10-31T11:03:25;98795.56;;;17.87;70.17
34979;BME280;21185;50.978;13.720;2022-10-31T11:08:27;98794.75;;;17.86;70.09
34979;BME280;21185;50.978;13.720;2022-10-31T11:13:31;98787.50;;;17.88;70.08
34979;BME280;21185;50.978;13.720;2022-10-31T11:18:38;98785.06;;;17.87;70.05
34979;BME280;21185;50.978;13.720;2022-10-31T11:23:40;98772.53;;;17.82;70.14
34979;BME280;21185;50.978;13.720;2022-10-31T11:28:42;98767.66;;;17.79;70.24
34979;BME280;21185;50.978;13.720;2022-10-31T11:33:50;98767.66;;;17.79;70.31
34979;BME280;21185;50.978;13.720;2022-10-31T11:38:57;98760.41;;;17.81;70.36
34979;BME280;21185;50.978;13.720;2022-10-31T11:44:04;98751.53;;;17.82;70.37
34979;BME280;21185;50.978;13.720;2022-10-31T11:49:20;98753.94;;;17.84;70.23
34979;BME280;21185;50.978;13.720;2022-10-31T11:54:28;98755.16;;;17.81;70.38
34979;BME280;21185;50.978;13.720;2022-10-31T11:59:31;98754.53;;;17.79;70.18
34979;BME280;21185;50.978;13.720;2022-10-31T12:04:43;98739.78;;;17.78;70.11
34979;BME280;21185;50.978;13.720;2022-10-31T12:09:46;98733.53;;;17.79;69.94
34979;BME280;21185;50.978;13.720;2022-10-31T12:14:59;98731.53;;;17.81;70.04
34979;BME280;21185;50.978;13.720;2022-10-31T12:30:37;98716.81;;;17.87;69.74
34979;BME280;21185;50.978;13.720;2022-10-31T12:36:02;98708.72;;;17.88;69.84
34979;BME280;21185;50.978;13.720;2022-10-31T12:41:50;98708.72;;;17.88;70.07
34979;BME280;21185;50.978;13.720;2022-10-31T12:57:39;98686.72;;;17.89;70.05
34979;BME280;21185;50.978;13.720;2022-10-31T13:07:48;98680.47;;;17.90;69.97
34979;BME280;21185;50.978;13.720;2022-10-31T13:12:55;98681.66;;;17.88;69.84
34979;BME280;21185;50.978;13.720;2022-10-31T13:18:06;98671.97;;;17.88;69.87
34979;BME280;21185;50.978;13.720;2022-10-31T13:44:38;98646.53;;;17.89;69.89
34979;BME280;21185;50.978;13.720;2022-10-31T13:49:40;98651.97;;;17.87;69.81
34979;BME280;21185;50.978;13.720;2022-10-31T13:54:48;98648.34;;;17.88;69.80
34979;BME280;21185;50.978;13.720;2022-10-31T14:00:23;98654.59;;;17.87;69.72
34979;BME280;21185;50.978;13.720;2022-10-31T14:05:31;98639.25;;;17.84;69.88
34979;BME280;21185;50.978;13.720;2022-10-31T14:10:38;98637.63;;;17.83;69.79
34979;BME280;21185;50.978;13.720;2022-10-31T14:15:59;98634.00;;;17.77;69.85
34979;BME280;21185;50.978;13.720;2022-10-31T14:26:31;98633.56;;;17.67;69.86
34979;BME280;21185;50.978;13.720;2022-10-31T14:31:44;98621.00;;;17.63;69.81
34979;BME280;21185;50.978;13.720;2022-10-31T14:52:36;98610.44;;;17.36;70.13
34979;BME280;21185;50.978;13.720;2022-10-31T14:57:49;98604.38;;;17.29;70.39
34979;BME280;21185;50.978;13.720;2022-10-31T15:08:25;98601.06;;;17.07;70.58
34979;BME280;21185;50.978;13.720;2022-10-31T15:13:28;98598.38;;;16.94;70.55
34979;BME280;21185;50.978;13.720;2022-10-31T15:18:30;98592.88;;;16.82;70.55
34979;BME280;21185;50.978;13.720;2022-10-31T15:23:32;98592.44;;;16.72;70.91
34979;BME280;21185;50.978;13.720;2022-10-31T15:28:34;98589.31;;;16.62;70.92
34979;BME280;21185;50.978;13.720;2022-10-31T15:33:41;98586.25;;;16.52;70.92
34979;BME280;21185;50.978;13.720;2022-10-31T15:38:50;98586.56;;;16.42;70.78
34979;BME280;21185;50.978;13.720;2022-10-31T15:43:52;98582.28;;;16.35;71.00
34979;BME280;21185;50.978;13.720;2022-10-31T15:48:54;98569.16;;;16.28;71.22
34979;BME280;21185;50.978;13.720;2022-10-31T15:53:56;98566.69;;;16.20;71.25
34979;BME280;21185;50.978;13.720;2022-10-31T15:59:00;98554.75;;;16.11;71.02
34979;BME280;21185;50.978;13.720;2022-10-31T16:09:21;98548.78;;;15.96;71.23
34979;BME280;21185;50.978;13.720;2022-10-31T16:14:27;98549.97;;;15.93;71.29
34979;BME280;21185;50.978;13.720;2022-10-31T16:19:33;98548.72;;;15.89;71.26
34979;BME280;21185;50.978;13.720;2022-10-31T16:24:46;98546.31;;;15.87;71.23
34979;BME280;21185;50.978;13.720;2022-10-31T16:29:49;98543.63;;;15.81;71.26
34979;BME280;21185;50.978;13.720;2022-10-31T16:34:59;98555.47;;;15.77;71.38
34979;BME280;21185;50.978;13.720;2022-10-31T16:40:01;98556.84;;;15.73;71.21
34979;BME280;21185;50.978;13.720;2022-10-31T16:45:05;98547.75;;;15.69;71.32
34979;BME280;21185;50.978;13.720;2022-10-31T16:50:33;98552.38;;;15.67;71.51
34979;BME280;21185;50.978;13.720;2022-10-31T16:55:41;98550.75;;;15.66;71.29
34979;BME280;21185;50.978;13.720;2022-10-31T17:00:43;98541.88;;;15.60;71.11
34979;BME280;21185;50.978;13.720;2022-10-31T17:05:46;98542.41;;;15.55;71.00
34979;BME280;21185;50.978;13.720;2022-10-31T17:10:50;98540.97;;;15.53;71.26
34979;BME280;21185;50.978;13.720;2022-10-31T17:15:55;98536.94;;;15.50;71.45
34979;BME280;21185;50.978;13.720;2022-10-31T17:20:59;98534.69;;;15.47;71.59
34979;BME280;21185;50.978;13.720;2022-10-31T17:26:02;98534.06;;;15.45;71.57
34979;BME280;21185;50.978;13.720;2022-10-31T17:31:04;98536.06;;;15.43;71.52
34979;BME280;21185;50.978;13.720;2022-10-31T17:36:06;98532.81;;;15.41;71.64
34979;BME280;21185;50.978;13.720;2022-10-31T17:41:08;98525.34;;;15.38;71.55
34979;BME280;21185;50.978;13.720;2022-10-31T17:46:12;98515.88;;;15.37;71.72
34979;BME280;21185;50.978;13.720;2022-10-31T17:51:14;98511.66;;;15.36;71.76
34979;BME280;21185;50.978;13.720;2022-10-31T17:56:15;98519.50;;;15.36;71.89
34979;BME280;21185;50.978;13.720;2022-10-31T18:01:18;98511.47;;;15.38;71.78
34979;BME280;21185;50.978;13.720;2022-10-31T18:06:20;98509.66;;;15.38;71.83
34979;BME280;21185;50.978;13.720;2022-10-31T18:11:22;98512.47;;;15.37;71.70
34979;BME280;21185;50.978;13.720;2022-10-31T18:16:25;98501.19;;;15.36;72.01
34979;BME280;21185;50.978;13.720;2022-10-31T18:21:27;98504.97;;;15.34;72.03
34979;BME280;21185;50.978;13.720;2022-10-31T18:26:29;98505.16;;;15.32;72.22
34979;BME280;21185;50.978;13.720;2022-10-31T18:31:31;98507.97;;;15.31;72.27
34979;BME280;21185;50.978;13.720;2022-10-31T18:36:33;98494.28;;;15.29;72.11
34979;BME280;21185;50.978;13.720;2022-10-31T18:41:37;98495.47;;;15.26;72.32
34979;BME280;21185;50.978;13.720;2022-10-31T18:46:39;98496.63;;;15.23;72.10
34979;BME280;21185;50.978;13.720;2022-10-31T18:51:41;98492.78;;;15.19;72.34
34979;BME280;21185;50.978;13.720;2022-10-31T18:56:43;98482.88;;;15.15;72.20
34979;BME280;21185;50.978;13.720;2022-10-31T19:01:45;98476.78;;;15.08;72.33
34979;BME280;21185;50.978;13.720;2022-10-31T19:06:47;98473.91;;;15.03;72.43
34979;BME280;21185;50.978;13.720;2022-10-31T19:11:49;98463.38;;;14.96;72.44
34979;BME280;21185;50.978;13.720;2022-10-31T19:16:51;98470.16;;;14.90;72.38
34979;BME280;21185;50.978;13.720;2022-10-31T19:21:55;98466.50;;;14.85;72.21
34979;BME280;21185;50.978;13.720;2022-10-31T19:26:57;98457.59;;;14.79;72.34
34979;BME280;21185;50.978;13.720;2022-10-31T19:32:01;98460.75;;;14.75;72.23
34979;BME280;21185;50.978;13.720;2022-10-31T19:37:03;98450.66;;;14.72;72.22
34979;BME280;21185;50.978;13.720;2022-10-31T19:42:05;98452.84;;;14.68;72.11
34979;BME280;21185;50.978;13.720;2022-10-31T19:47:07;98446.53;;;14.63;72.17
34979;BME280;21185;50.978;13.720;2022-10-31T19:52:08;98442.13;;;14.63;71.81
34979;BME280;21185;50.978;13.720;2022-10-31T19:57:10;98435.09;;;14.64;71.98
34979;BME280;21185;50.978;13.720;2022-10-31T20:02:12;98420.63;;;14.61;72.12
34979;BME280;21185;50.978;13.720;2022-10-31T20:07:20;98412.78;;;14.61;72.11
34979;BME280;21185;50.978;13.720;2022-10-31T20:12:22;98414.41;;;14.62;72.18
34979;BME280;21185;50.978;13.720;2022-10-31T20:17:24;98427.91;;;14.66;71.95
34979;BME280;21185;50.978;13.720;2022-10-31T20:22:26;98428.16;;;14.71;72.09
34979;BME280;21185;50.978;13.720;2022-10-31T20:27:27;98411.31;;;14.73;71.94
34979;BME280;21185;50.978;13.720;2022-10-31T20:32:30;98408.63;;;14.67;72.19
34979;BME280;21185;50.978;13.720;2022-10-31T20:37:31;98401.97;;;14.64;72.27
34979;BME280;21185;50.978;13.720;2022-10-31T20:42:33;98396.56;;;14.66;72.24
34979;BME280;21185;50.978;13.720;2022-10-31T20:47:35;98399.63;;;14.69;72.43
34979;BME280;21185;50.978;13.720;2022-10-31T20:52:37;98383.19;;;14.75;72.30
34979;BME280;21185;50.978;13.720;2022-10-31T20:57:41;98378.22;;;14.80;72.23
34979;BME280;21185;50.978;13.720;2022-10-31T21:02:42;98378.47;;;14.85;72.27
34979;BME280;21185;50.978;13.720;2022-10-31T21:07:45;98378.28;;;14.87;72.38
34979;BME280;21185;50.978;13.720;2022-10-31T21:12:47;98378.66;;;14.84;72.38
34979;BME280;21185;50.978;13.720;2022-10-31T21:17:48;98359.94;;;14.80;72.35
34979;BME280;21185;50.978;13.720;2022-10-31T21:22:50;98361.13;;;14.78;72.30
34979;BME280;21185;50.978;13.720;2022-10-31T21:27:52;98368.16;;;14.77;72.40
34979;BME280;21185;50.978;13.720;2022-10-31T21:32:54;98370.13;;;14.75;72.35
34979;BME280;21185;50.978;13.720;2022-10-31T21:37:56;98359.06;;;14.73;72.32
34979;BME280;21185;50.978;13.720;2022-10-31T21:43:01;98343.97;;;14.69;72.54
34979;BME280;21185;50.978;13.720;2022-10-31T21:48:04;98341.91;;;14.64;72.79
34979;BME280;21185;50.978;13.720;2022-10-31T21:53:05;98335.25;;;14.62;72.82
34979;BME280;21185;50.978;13.720;2022-10-31T21:58:27;98327.97;;;14.57;72.91
34979;BME280;21185;50.978;13.720;2022-10-31T22:03:35;98322.94;;;14.55;72.96
34979;BME280;21185;50.978;13.720;2022-10-31T22:08:37;98314.09;;;14.56;73.03
34979;BME280;21185;50.978;13.720;2022-10-31T22:13:42;98314.28;;;14.55;72.88
34979;BME280;21185;50.978;13.720;2022-10-31T22:18:45;98305.66;;;14.54;72.80
34979;BME280;21185;50.978;13.720;2022-10-31T22:23:50;98304.97;;;14.46;72.89
34979;BME280;21185;50.978;13.720;2022-10-31T22:28:54;98314.31;;;14.40;72.79
34979;BME280;21185;50.978;13.720;2022-10-31T22:33:57;98310.47;;;14.36;72.60
34979;BME280;21185;50.978;13.720;2022-10-31T22:38:59;98301.19;;;14.34;72.79
34979;BME280;21185;50.978;13.720;2022-10-31T22:44:02;98286.09;;;14.29;72.69
34979;BME280;21185;50.978;13.720;2022-10-31T22:49:09;98276.56;;;14.21;72.70
34979;BME280;21185;50.978;13.720;2022-10-31T22:54:16;98282.53;;;14.15;72.65
34979;BME280;21185;50.978;13.720;2022-10-31T22:59:19;98281.28;;;14.11;72.60
34979;BME280;21185;50.978;13.720;2022-10-31T23:04:22;98273.19;;;14.06;72.60
34979;BME280;21185;50.978;13.720;2022-10-31T23:09:24;98277.53;;;13.99;72.65
34979;BME280;21185;50.978;13.720;2022-10-31T23:14:26;98261.81;;;13.92;72.67
34979;BME280;21185;50.978;13.720;2022-10-31T23:19:28;98263.34;;;13.87;72.63
34979;BME280;21185;50.978;13.720;2022-10-31T23:24:37;98255.63;;;13.79;72.56
34979;BME280;21185;50.978;13.720;2022-10-31T23:29:43;98250.53;;;13.71;72.49
34979;BME280;21185;50.978;13.720;2022-10-31T23:34:47;98240.19;;;13.63;72.61
34979;BME280;21185;50.978;13.720;2022-10-31T23:39:50;98235.97;;;13.61;72.62
34979;BME280;21185;50.978;13.720;2022-10-31T23:44:52;98227.53;;;13.59;72.50
34979;BME280;21185;50.978;13.720;2022-10-31T23:49:54;98222.50;;;13.58;72.67
34979;BME280;21185;50.978;13.720;2022-10-31T23:54:56;98207.84;;;13.57;72.55
